sensor_id;sensor_type;location;lat;lon;timestamp;P1;durP1;ratioP1;P2;durP2;ratioP2
12962;SDS011;6546;49.882;8.666;2023-04-10T00:00:27;16.37;;;13.10;;
12962;SDS011;6546;49.882;8.666;2023-04-10T00:02:57;8.10;;;7.30;;
12962;SDS011;6546;49.882;8.666;2023-04-10T00:05:25;7.40;;;6.67;;
12962;SDS011;6546;49.882;8.666;2023-04-10T00:07:51;7.03;;;6.33;;
12962;SDS011;6546;49.882;8.666;2023-04-10T00:10:18;7.73;;;6.93;;
12962;SDS011;6546;49.882;8.666;2023-04-10T00:12:45;9.40;;;6.50;;
12962;SDS011;6546;49.882;8.666;2023-04-10T00:15:13;7.63;;;6.87;;
12962;SDS011;6546;49.882;8.666;2023-04-10T00:17:39;8.00;;;7.20;;
12962;SDS011;6546;49.882;8.666;2023-04-10T00:20:06;9.30;;;7.87;;
12962;SDS011;6546;49.882;8.666;2023-04-10T00:22:34;9.13;;;7.53;;
12962;SDS011;6546;49.882;8.666;2023-04-10T00:25:00;7.67;;;6.87;;
12962;SDS011;6546;49.882;8.666;2023-04-10T00:27:27;8.77;;;7.87;;
12962;SDS011;6546;49.882;8.666;2023-04-10T00:29:54;8.93;;;8.03;;
12962;SDS011;6546;49.882;8.666;2023-04-10T00:32:22;10.23;;;7.43;;
12962;SDS011;6546;49.882;8.666;2023-04-10T00:34:48;9.13;;;8.17;;
12962;SDS011;6546;49.882;8.666;2023-04-10T00:37:15;9.20;;;8.20;;
12962;SDS011;6546;49.882;8.666;2023-04-10T00:39:41;8.20;;;7.33;;
12962;SDS011;6546;49.882;8.666;2023-04-10T00:42:08;10.43;;;7.80;;
12962;SDS011;6546;49.882;8.666;2023-04-10T00:44:34;8.83;;;7.93;;
12962;SDS011;6546;49.882;8.666;2023-04-10T00:47:02;8.80;;;7.50;;
12962;SDS011;6546;49.882;8.666;2023-04-10T00:49:30;7.90;;;7.10;;
12962;SDS011;6546;49.882;8.666;2023-04-10T00:51:57;7.80;;;7.00;;
12962;SDS011;6546;49.882;8.666;2023-04-10T00:54:23;8.87;;;7.70;;
12962;SDS011;6546;49.882;8.666;2023-04-10T00:56:50;8.23;;;7.43;;
12962;SDS011;6546;49.882;8.666;2023-04-10T00:59:17;7.67;;;6.87;;
12962;SDS011;6546;49.882;8.666;2023-04-10T01:01:44;7.97;;;7.17;;
12962;SDS011;6546;49.882;8.666;2023-04-10T01:04:11;8.10;;;7.30;;
12962;SDS011;6546;49.882;8.666;2023-04-10T01:06:45;8.53;;;7.40;;
12962;SDS011;6546;49.882;8.666;2023-04-10T01:09:23;7.70;;;6.90;;
12962;SDS011;6546;49.882;8.666;2023-04-10T01:11:59;8.13;;;7.33;;
12962;SDS011;6546;49.882;8.666;2023-04-10T01:14:35;8.07;;;7.27;;
12962;SDS011;6546;49.882;8.666;2023-04-10T01:17:09;7.80;;;7.00;;
12962;SDS011;6546;49.882;8.666;2023-04-10T01:19:45;8.73;;;7.80;;
12962;SDS011;6546;49.882;8.666;2023-04-10T01:22:26;9.07;;;6.77;;
12962;SDS011;6546;49.882;8.666;2023-04-10T01:25:00;8.17;;;7.03;;
12962;SDS011;6546;49.882;8.666;2023-04-10T01:27:46;8.17;;;7.33;;
12962;SDS011;6546;49.882;8.666;2023-04-10T01:30:28;9.10;;;7.63;;
12962;SDS011;6546;49.882;8.666;2023-04-10T01:32:57;8.20;;;7.40;;
12962;SDS011;6546;49.882;8.666;2023-04-10T01:35:25;7.93;;;7.13;;
12962;SDS011;6546;49.882;8.666;2023-04-10T01:37:54;9.07;;;8.10;;
12962;SDS011;6546;49.882;8.666;2023-04-10T01:40:22;9.83;;;7.97;;
12962;SDS011;6546;49.882;8.666;2023-04-10T01:42:51;8.27;;;7.13;;
12962;SDS011;6546;49.882;8.666;2023-04-10T01:45:21;8.80;;;7.90;;
12962;SDS011;6546;49.882;8.666;2023-04-10T01:47:53;8.67;;;7.80;;
12962;SDS011;6546;49.882;8.666;2023-04-10T01:50:20;8.37;;;7.53;;
12962;SDS011;6546;49.882;8.666;2023-04-10T01:52:48;8.37;;;7.57;;
12962;SDS011;6546;49.882;8.666;2023-04-10T01:55:16;8.73;;;7.83;;
12962;SDS011;6546;49.882;8.666;2023-04-10T01:57:45;8.90;;;8.00;;
12962;SDS011;6546;49.882;8.666;2023-04-10T02:00:13;9.03;;;8.10;;
12962;SDS011;6546;49.882;8.666;2023-04-10T02:02:43;10.27;;;8.40;;
12962;SDS011;6546;49.882;8.666;2023-04-10T02:05:11;9.10;;;7.77;;
12962;SDS011;6546;49.882;8.666;2023-04-10T02:07:38;8.40;;;7.50;;
12962;SDS011;6546;49.882;8.666;2023-04-10T02:10:10;8.50;;;7.60;;
12962;SDS011;6546;49.882;8.666;2023-04-10T02:12:42;8.57;;;7.67;;
12962;SDS011;6546;49.882;8.666;2023-04-10T02:15:18;8.50;;;7.23;;
12962;SDS011;6546;49.882;8.666;2023-04-10T02:17:46;9.90;;;8.47;;
12962;SDS011;6546;49.882;8.666;2023-04-10T02:20:16;8.60;;;7.60;;
12962;SDS011;6546;49.882;8.666;2023-04-10T02:22:43;10.90;;;8.87;;
12962;SDS011;6546;49.882;8.666;2023-04-10T02:25:12;9.47;;;8.47;;
12962;SDS011;6546;49.882;8.666;2023-04-10T02:27:40;9.53;;;8.37;;
12962;SDS011;6546;49.882;8.666;2023-04-10T02:30:07;9.70;;;8.67;;
12962;SDS011;6546;49.882;8.666;2023-04-10T02:32:34;10.90;;;8.53;;
12962;SDS011;6546;49.882;8.666;2023-04-10T02:35:01;10.77;;;9.10;;
12962;SDS011;6546;49.882;8.666;2023-04-10T02:37:29;9.40;;;8.23;;
12962;SDS011;6546;49.882;8.666;2023-04-10T02:39:57;9.20;;;8.20;;
12962;SDS011;6546;49.882;8.666;2023-04-10T02:42:24;8.67;;;7.77;;
12962;SDS011;6546;49.882;8.666;2023-04-10T02:44:51;9.00;;;8.10;;
12962;SDS011;6546;49.882;8.666;2023-04-10T02:47:17;9.30;;;8.40;;
12962;SDS011;6546;49.882;8.666;2023-04-10T02:49:44;9.47;;;8.47;;
12962;SDS011;6546;49.882;8.666;2023-04-10T02:52:12;10.27;;;8.67;;
12962;SDS011;6546;49.882;8.666;2023-04-10T02:54:40;12.00;;;8.70;;
12962;SDS011;6546;49.882;8.666;2023-04-10T02:57:06;9.67;;;8.63;;
12962;SDS011;6546;49.882;8.666;2023-04-10T02:59:33;9.53;;;8.57;;
12962;SDS011;6546;49.882;8.666;2023-04-10T03:01:59;10.03;;;8.80;;
12962;SDS011;6546;49.882;8.666;2023-04-10T03:04:26;9.90;;;8.90;;
12962;SDS011;6546;49.882;8.666;2023-04-10T03:06:53;10.10;;;8.80;;
12962;SDS011;6546;49.882;8.666;2023-04-10T03:09:19;9.63;;;8.63;;
12962;SDS011;6546;49.882;8.666;2023-04-10T03:11:48;11.43;;;8.57;;
12962;SDS011;6546;49.882;8.666;2023-04-10T03:14:15;9.87;;;8.87;;
12962;SDS011;6546;49.882;8.666;2023-04-10T03:16:42;10.33;;;9.23;;
12962;SDS011;6546;49.882;8.666;2023-04-10T03:19:09;9.60;;;8.60;;
12962;SDS011;6546;49.882;8.666;2023-04-10T03:21:36;9.47;;;8.33;;
12962;SDS011;6546;49.882;8.666;2023-04-10T03:24:03;10.40;;;9.00;;
12962;SDS011;6546;49.882;8.666;2023-04-10T03:26:30;10.27;;;8.77;;
12962;SDS011;6546;49.882;8.666;2023-04-10T03:28:58;10.33;;;8.77;;
12962;SDS011;6546;49.882;8.666;2023-04-10T03:31:25;10.90;;;9.63;;
12962;SDS011;6546;49.882;8.666;2023-04-10T03:33:51;10.47;;;9.37;;
12962;SDS011;6546;49.882;8.666;2023-04-10T03:36:17;10.17;;;8.70;;
12962;SDS011;6546;49.882;8.666;2023-04-10T03:38:44;10.20;;;8.83;;
12962;SDS011;6546;49.882;8.666;2023-04-10T03:41:10;9.63;;;8.63;;
12962;SDS011;6546;49.882;8.666;2023-04-10T03:43:37;10.53;;;8.77;;
12962;SDS011;6546;49.882;8.666;2023-04-10T03:46:08;10.23;;;8.93;;
12962;SDS011;6546;49.882;8.666;2023-04-10T03:48:35;12.10;;;9.53;;
12962;SDS011;6546;49.882;8.666;2023-04-10T03:51:01;10.97;;;8.93;;
12962;SDS011;6546;49.882;8.666;2023-04-10T03:53:28;10.53;;;9.30;;
12962;SDS011;6546;49.882;8.666;2023-04-10T03:56:03;9.80;;;8.80;;
12962;SDS011;6546;49.882;8.666;2023-04-10T03:58:30;10.17;;;9.07;;
12962;SDS011;6546;49.882;8.666;2023-04-10T04:00:58;10.67;;;9.33;;
12962;SDS011;6546;49.882;8.666;2023-04-10T04:03:26;11.53;;;9.13;;
12962;SDS011;6546;49.882;8.666;2023-04-10T04:05:52;10.57;;;8.97;;
12962;SDS011;6546;49.882;8.666;2023-04-10T04:08:19;9.83;;;8.83;;
12962;SDS011;6546;49.882;8.666;2023-04-10T04:10:46;10.87;;;8.83;;
12962;SDS011;6546;49.882;8.666;2023-04-10T04:13:17;9.67;;;8.67;;
12962;SDS011;6546;49.882;8.666;2023-04-10T04:15:44;10.90;;;9.27;;
12962;SDS011;6546;49.882;8.666;2023-04-10T04:18:11;9.57;;;8.57;;
12962;SDS011;6546;49.882;8.666;2023-04-10T04:20:39;11.60;;;9.13;;
12962;SDS011;6546;49.882;8.666;2023-04-10T04:23:06;10.10;;;8.87;;
12962;SDS011;6546;49.882;8.666;2023-04-10T04:25:32;11.37;;;9.33;;
12962;SDS011;6546;49.882;8.666;2023-04-10T04:27:59;10.40;;;9.13;;
12962;SDS011;6546;49.882;8.666;2023-04-10T04:30:26;11.43;;;9.50;;
12962;SDS011;6546;49.882;8.666;2023-04-10T04:32:52;10.43;;;9.30;;
12962;SDS011;6546;49.882;8.666;2023-04-10T04:35:19;11.33;;;9.83;;
12962;SDS011;6546;49.882;8.666;2023-04-10T04:37:48;10.77;;;9.67;;
12962;SDS011;6546;49.882;8.666;2023-04-10T04:40:14;11.67;;;9.90;;
12962;SDS011;6546;49.882;8.666;2023-04-10T04:42:41;11.20;;;9.73;;
12962;SDS011;6546;49.882;8.666;2023-04-10T04:45:10;11.13;;;10.03;;
12962;SDS011;6546;49.882;8.666;2023-04-10T04:47:40;10.27;;;9.17;;
12962;SDS011;6546;49.882;8.666;2023-04-10T04:50:07;11.33;;;10.00;;
12962;SDS011;6546;49.882;8.666;2023-04-10T04:52:35;10.97;;;9.60;;
12962;SDS011;6546;49.882;8.666;2023-04-10T04:55:03;11.40;;;10.20;;
12962;SDS011;6546;49.882;8.666;2023-04-10T04:57:30;12.40;;;9.97;;
12962;SDS011;6546;49.882;8.666;2023-04-10T04:59:56;11.57;;;10.13;;
12962;SDS011;6546;49.882;8.666;2023-04-10T05:02:23;11.87;;;9.50;;
12962;SDS011;6546;49.882;8.666;2023-04-10T05:04:49;10.17;;;8.97;;
12962;SDS011;6546;49.882;8.666;2023-04-10T05:07:16;14.03;;;10.40;;
12962;SDS011;6546;49.882;8.666;2023-04-10T05:09:43;11.27;;;10.00;;
12962;SDS011;6546;49.882;8.666;2023-04-10T05:12:11;12.07;;;9.47;;
12962;SDS011;6546;49.882;8.666;2023-04-10T05:14:38;12.00;;;10.53;;
12962;SDS011;6546;49.882;8.666;2023-04-10T05:17:04;12.27;;;9.70;;
12962;SDS011;6546;49.882;8.666;2023-04-10T05:19:31;13.00;;;10.60;;
12962;SDS011;6546;49.882;8.666;2023-04-10T05:21:57;12.87;;;10.60;;
12962;SDS011;6546;49.882;8.666;2023-04-10T05:24:24;11.50;;;10.23;;
12962;SDS011;6546;49.882;8.666;2023-04-10T05:26:50;10.57;;;9.33;;
12962;SDS011;6546;49.882;8.666;2023-04-10T05:29:18;11.23;;;10.03;;
12962;SDS011;6546;49.882;8.666;2023-04-10T05:31:45;12.27;;;10.50;;
12962;SDS011;6546;49.882;8.666;2023-04-10T05:34:11;12.10;;;10.17;;
12962;SDS011;6546;49.882;8.666;2023-04-10T05:36:38;11.53;;;9.80;;
12962;SDS011;6546;49.882;8.666;2023-04-10T05:39:04;11.43;;;10.20;;
12962;SDS011;6546;49.882;8.666;2023-04-10T05:41:31;12.00;;;10.17;;
12962;SDS011;6546;49.882;8.666;2023-04-10T05:43:58;12.80;;;10.43;;
12962;SDS011;6546;49.882;8.666;2023-04-10T05:46:25;11.70;;;9.87;;
12962;SDS011;6546;49.882;8.666;2023-04-10T05:48:52;11.10;;;9.50;;
12962;SDS011;6546;49.882;8.666;2023-04-10T05:51:18;12.03;;;10.07;;
12962;SDS011;6546;49.882;8.666;2023-04-10T05:53:45;11.60;;;10.03;;
12962;SDS011;6546;49.882;8.666;2023-04-10T05:56:12;12.03;;;10.07;;
12962;SDS011;6546;49.882;8.666;2023-04-10T05:58:38;12.00;;;10.43;;
12962;SDS011;6546;49.882;8.666;2023-04-10T06:01:05;11.53;;;9.33;;
12962;SDS011;6546;49.882;8.666;2023-04-10T06:03:33;10.90;;;9.63;;
12962;SDS011;6546;49.882;8.666;2023-04-10T06:06:00;10.83;;;9.00;;
12962;SDS011;6546;49.882;8.666;2023-04-10T06:08:27;11.10;;;9.87;;
12962;SDS011;6546;49.882;8.666;2023-04-10T06:10:54;10.03;;;8.90;;
12962;SDS011;6546;49.882;8.666;2023-04-10T06:13:21;11.37;;;9.83;;
12962;SDS011;6546;49.882;8.666;2023-04-10T06:15:48;10.83;;;9.47;;
12962;SDS011;6546;49.882;8.666;2023-04-10T06:18:14;10.37;;;9.27;;
12962;SDS011;6546;49.882;8.666;2023-04-10T06:20:42;10.20;;;8.60;;
12962;SDS011;6546;49.882;8.666;2023-04-10T06:23:09;10.87;;;9.77;;
12962;SDS011;6546;49.882;8.666;2023-04-10T06:25:37;9.97;;;8.87;;
12962;SDS011;6546;49.882;8.666;2023-04-10T06:28:03;10.80;;;9.37;;
12962;SDS011;6546;49.882;8.666;2023-04-10T06:30:30;9.80;;;8.73;;
12962;SDS011;6546;49.882;8.666;2023-04-10T06:32:58;10.37;;;9.17;;
12962;SDS011;6546;49.882;8.666;2023-04-10T06:35:25;10.23;;;9.13;;
12962;SDS011;6546;49.882;8.666;2023-04-10T06:37:53;9.83;;;8.83;;
12962;SDS011;6546;49.882;8.666;2023-04-10T06:40:20;9.93;;;8.87;;
12962;SDS011;6546;49.882;8.666;2023-04-10T06:42:46;9.57;;;8.43;;
12962;SDS011;6546;49.882;8.666;2023-04-10T06:45:13;10.53;;;8.97;;
12962;SDS011;6546;49.882;8.666;2023-04-10T06:47:39;9.70;;;8.70;;
12962;SDS011;6546;49.882;8.666;2023-04-10T06:50:06;9.77;;;8.83;;
12962;SDS011;6546;49.882;8.666;2023-04-10T06:52:33;10.37;;;9.27;;
12962;SDS011;6546;49.882;8.666;2023-04-10T06:55:01;9.50;;;8.50;;
12962;SDS011;6546;49.882;8.666;2023-04-10T06:57:28;10.20;;;8.80;;
12962;SDS011;6546;49.882;8.666;2023-04-10T06:59:54;10.07;;;8.30;;
12962;SDS011;6546;49.882;8.666;2023-04-10T07:02:21;11.53;;;9.43;;
12962;SDS011;6546;49.882;8.666;2023-04-10T07:04:48;9.90;;;8.93;;
12962;SDS011;6546;49.882;8.666;2023-04-10T07:07:14;9.50;;;8.50;;
12962;SDS011;6546;49.882;8.666;2023-04-10T07:09:43;9.67;;;8.57;;
12962;SDS011;6546;49.882;8.666;2023-04-10T07:12:11;10.33;;;8.63;;
12962;SDS011;6546;49.882;8.666;2023-04-10T07:14:37;10.50;;;8.70;;
12962;SDS011;6546;49.882;8.666;2023-04-10T07:17:04;10.27;;;9.27;;
12962;SDS011;6546;49.882;8.666;2023-04-10T07:19:31;9.83;;;8.70;;
12962;SDS011;6546;49.882;8.666;2023-04-10T07:21:57;9.40;;;8.50;;
12962;SDS011;6546;49.882;8.666;2023-04-10T07:24:24;9.70;;;8.70;;
12962;SDS011;6546;49.882;8.666;2023-04-10T07:26:52;10.33;;;8.47;;
12962;SDS011;6546;49.882;8.666;2023-04-10T07:29:20;9.73;;;8.73;;
12962;SDS011;6546;49.882;8.666;2023-04-10T07:31:46;9.33;;;8.33;;
12962;SDS011;6546;49.882;8.666;2023-04-10T07:34:13;10.47;;;9.33;;
12962;SDS011;6546;49.882;8.666;2023-04-10T07:36:39;9.40;;;8.50;;
12962;SDS011;6546;49.882;8.666;2023-04-10T07:39:06;9.73;;;8.73;;
12962;SDS011;6546;49.882;8.666;2023-04-10T07:41:33;9.90;;;8.90;;
12962;SDS011;6546;49.882;8.666;2023-04-10T07:44:00;9.90;;;8.90;;
12962;SDS011;6546;49.882;8.666;2023-04-10T07:46:28;10.67;;;9.27;;
12962;SDS011;6546;49.882;8.666;2023-04-10T07:48:54;10.10;;;9.07;;
12962;SDS011;6546;49.882;8.666;2023-04-10T07:51:21;10.67;;;8.87;;
12962;SDS011;6546;49.882;8.666;2023-04-10T07:53:48;9.87;;;8.83;;
12962;SDS011;6546;49.882;8.666;2023-04-10T07:56:15;9.60;;;8.60;;
12962;SDS011;6546;49.882;8.666;2023-04-10T07:58:42;9.97;;;8.97;;
12962;SDS011;6546;49.882;8.666;2023-04-10T08:01:08;10.87;;;9.33;;
12962;SDS011;6546;49.882;8.666;2023-04-10T08:03:40;9.70;;;8.70;;
12962;SDS011;6546;49.882;8.666;2023-04-10T08:06:08;10.20;;;9.20;;
12962;SDS011;6546;49.882;8.666;2023-04-10T08:08:35;10.40;;;8.97;;
12962;SDS011;6546;49.882;8.666;2023-04-10T08:11:03;9.90;;;8.90;;
12962;SDS011;6546;49.882;8.666;2023-04-10T08:13:32;11.53;;;8.80;;
12962;SDS011;6546;49.882;8.666;2023-04-10T08:15:59;10.20;;;9.20;;
12962;SDS011;6546;49.882;8.666;2023-04-10T08:18:25;9.90;;;8.90;;
12962;SDS011;6546;49.882;8.666;2023-04-10T08:20:53;10.70;;;9.60;;
12962;SDS011;6546;49.882;8.666;2023-04-10T08:23:25;9.63;;;8.63;;
12962;SDS011;6546;49.882;8.666;2023-04-10T08:25:54;10.37;;;9.33;;
12962;SDS011;6546;49.882;8.666;2023-04-10T08:28:21;10.20;;;9.20;;
12962;SDS011;6546;49.882;8.666;2023-04-10T08:30:51;9.87;;;8.87;;
12962;SDS011;6546;49.882;8.666;2023-04-10T08:33:18;9.33;;;8.43;;
12962;SDS011;6546;49.882;8.666;2023-04-10T08:35:45;9.23;;;8.33;;
12962;SDS011;6546;49.882;8.666;2023-04-10T08:38:14;9.00;;;8.10;;
12962;SDS011;6546;49.882;8.666;2023-04-10T08:40:40;9.00;;;8.10;;
12962;SDS011;6546;49.882;8.666;2023-04-10T08:43:08;8.63;;;7.73;;
12962;SDS011;6546;49.882;8.666;2023-04-10T08:45:35;8.13;;;7.33;;
12962;SDS011;6546;49.882;8.666;2023-04-10T08:48:03;7.90;;;7.03;;
12962;SDS011;6546;49.882;8.666;2023-04-10T08:50:32;7.47;;;6.77;;
12962;SDS011;6546;49.882;8.666;2023-04-10T08:53:02;8.50;;;7.60;;
12962;SDS011;6546;49.882;8.666;2023-04-10T08:55:34;8.37;;;7.57;;
12962;SDS011;6546;49.882;8.666;2023-04-10T08:58:05;7.70;;;7.00;;
12962;SDS011;6546;49.882;8.666;2023-04-10T09:00:37;8.47;;;7.57;;
12962;SDS011;6546;49.882;8.666;2023-04-10T09:03:05;7.20;;;6.50;;
12962;SDS011;6546;49.882;8.666;2023-04-10T09:05:35;6.73;;;6.13;;
12962;SDS011;6546;49.882;8.666;2023-04-10T09:08:02;7.33;;;6.63;;
12962;SDS011;6546;49.882;8.666;2023-04-10T09:10:29;6.50;;;5.80;;
12962;SDS011;6546;49.882;8.666;2023-04-10T09:12:57;7.17;;;6.57;;
12962;SDS011;6546;49.882;8.666;2023-04-10T09:15:24;6.43;;;5.83;;
12962;SDS011;6546;49.882;8.666;2023-04-10T09:17:55;7.37;;;6.67;;
12962;SDS011;6546;49.882;8.666;2023-04-10T09:20:24;6.90;;;6.30;;
12962;SDS011;6546;49.882;8.666;2023-04-10T09:22:58;6.93;;;6.23;;
12962;SDS011;6546;49.882;8.666;2023-04-10T09:25:28;6.17;;;5.57;;
12962;SDS011;6546;49.882;8.666;2023-04-10T09:28:02;6.30;;;5.43;;
12962;SDS011;6546;49.882;8.666;2023-04-10T09:30:33;5.30;;;4.80;;
12962;SDS011;6546;49.882;8.666;2023-04-10T09:33:10;5.33;;;4.83;;
12962;SDS011;6546;49.882;8.666;2023-04-10T09:35:46;4.50;;;4.10;;
12962;SDS011;6546;49.882;8.666;2023-04-10T09:38:14;4.77;;;4.30;;
12962;SDS011;6546;49.882;8.666;2023-04-10T09:40:42;4.40;;;4.00;;
12962;SDS011;6546;49.882;8.666;2023-04-10T09:43:17;4.60;;;4.10;;
12962;SDS011;6546;49.882;8.666;2023-04-10T09:45:46;4.30;;;3.90;;
12962;SDS011;6546;49.882;8.666;2023-04-10T09:48:14;4.07;;;3.77;;
12962;SDS011;6546;49.882;8.666;2023-04-10T09:50:40;4.50;;;4.10;;
12962;SDS011;6546;49.882;8.666;2023-04-10T09:53:07;4.37;;;3.97;;
12962;SDS011;6546;49.882;8.666;2023-04-10T09:55:35;3.90;;;3.57;;
12962;SDS011;6546;49.882;8.666;2023-04-10T09:58:02;4.07;;;3.77;;
12962;SDS011;6546;49.882;8.666;2023-04-10T10:00:31;4.13;;;3.73;;
12962;SDS011;6546;49.882;8.666;2023-04-10T10:03:01;3.20;;;2.90;;
12962;SDS011;6546;49.882;8.666;2023-04-10T10:05:33;4.30;;;3.50;;
12962;SDS011;6546;49.882;8.666;2023-04-10T10:08:08;3.60;;;3.30;;
12962;SDS011;6546;49.882;8.666;2023-04-10T10:10:36;3.37;;;3.07;;
12962;SDS011;6546;49.882;8.666;2023-04-10T10:13:06;3.00;;;2.80;;
12962;SDS011;6546;49.882;8.666;2023-04-10T10:15:39;4.27;;;3.30;;
12962;SDS011;6546;49.882;8.666;2023-04-10T10:18:16;3.27;;;2.87;;
12962;SDS011;6546;49.882;8.666;2023-04-10T10:20:50;3.63;;;3.33;;
12962;SDS011;6546;49.882;8.666;2023-04-10T10:23:18;3.03;;;2.83;;
12962;SDS011;6546;49.882;8.666;2023-04-10T10:25:45;2.80;;;2.60;;
12962;SDS011;6546;49.882;8.666;2023-04-10T10:28:12;3.37;;;2.87;;
12962;SDS011;6546;49.882;8.666;2023-04-10T10:30:43;2.93;;;2.73;;
12962;SDS011;6546;49.882;8.666;2023-04-10T10:33:10;2.27;;;2.13;;
12962;SDS011;6546;49.882;8.666;2023-04-10T10:35:39;2.70;;;2.50;;
12962;SDS011;6546;49.882;8.666;2023-04-10T10:38:14;2.77;;;2.50;;
12962;SDS011;6546;49.882;8.666;2023-04-10T10:40:42;2.50;;;2.27;;
12962;SDS011;6546;49.882;8.666;2023-04-10T10:43:15;2.50;;;2.30;;
12962;SDS011;6546;49.882;8.666;2023-04-10T10:45:49;2.93;;;2.73;;
12962;SDS011;6546;49.882;8.666;2023-04-10T10:48:20;2.47;;;2.27;;
12962;SDS011;6546;49.882;8.666;2023-04-10T10:50:51;2.33;;;2.13;;
12962;SDS011;6546;49.882;8.666;2023-04-10T10:53:31;2.63;;;2.43;;
12962;SDS011;6546;49.882;8.666;2023-04-10T10:56:03;2.40;;;2.20;;
12962;SDS011;6546;49.882;8.666;2023-04-10T10:59:00;2.40;;;2.20;;
12962;SDS011;6546;49.882;8.666;2023-04-10T11:01:28;2.40;;;2.20;;
12962;SDS011;6546;49.882;8.666;2023-04-10T11:03:55;2.77;;;2.57;;
12962;SDS011;6546;49.882;8.666;2023-04-10T11:12:15;2.33;;;2.13;;
12962;SDS011;6546;49.882;8.666;2023-04-10T11:14:42;2.53;;;2.33;;
12962;SDS011;6546;49.882;8.666;2023-04-10T11:17:11;2.50;;;2.10;;
12962;SDS011;6546;49.882;8.666;2023-04-10T11:19:57;2.40;;;2.20;;
12962;SDS011;6546;49.882;8.666;2023-04-10T11:22:25;2.40;;;2.20;;
12962;SDS011;6546;49.882;8.666;2023-04-10T11:24:53;2.30;;;2.10;;
12962;SDS011;6546;49.882;8.666;2023-04-10T11:27:38;2.20;;;2.00;;
12962;SDS011;6546;49.882;8.666;2023-04-10T11:30:32;2.23;;;2.03;;
12962;SDS011;6546;49.882;8.666;2023-04-10T11:33:01;2.10;;;1.93;;
12962;SDS011;6546;49.882;8.666;2023-04-10T11:35:29;2.87;;;2.60;;
12962;SDS011;6546;49.882;8.666;2023-04-10T11:38:10;2.20;;;2.00;;
12962;SDS011;6546;49.882;8.666;2023-04-10T11:40:54;2.20;;;2.07;;
12962;SDS011;6546;49.882;8.666;2023-04-10T11:43:28;2.37;;;2.17;;
12962;SDS011;6546;49.882;8.666;2023-04-10T11:45:59;2.33;;;2.13;;
12962;SDS011;6546;49.882;8.666;2023-04-10T11:48:29;2.50;;;2.30;;
12962;SDS011;6546;49.882;8.666;2023-04-10T11:50:55;2.50;;;2.17;;
12962;SDS011;6546;49.882;8.666;2023-04-10T11:53:24;2.40;;;2.20;;
12962;SDS011;6546;49.882;8.666;2023-04-10T11:55:50;2.23;;;2.03;;
12962;SDS011;6546;49.882;8.666;2023-04-10T11:58:20;2.47;;;2.27;;
12962;SDS011;6546;49.882;8.666;2023-04-10T12:00:54;2.50;;;2.30;;
12962;SDS011;6546;49.882;8.666;2023-04-10T12:03:31;4.40;;;2.37;;
12962;SDS011;6546;49.882;8.666;2023-04-10T12:06:01;3.07;;;2.30;;
12962;SDS011;6546;49.882;8.666;2023-04-10T12:08:29;2.88;;;2.30;;
12962;SDS011;6546;49.882;8.666;2023-04-10T12:10:57;3.13;;;2.10;;
12962;SDS011;6546;49.882;8.666;2023-04-10T12:13:23;2.67;;;2.47;;
12962;SDS011;6546;49.882;8.666;2023-04-10T12:15:50;2.27;;;2.10;;
12962;SDS011;6546;49.882;8.666;2023-04-10T12:18:17;2.50;;;2.30;;
12962;SDS011;6546;49.882;8.666;2023-04-10T12:20:46;2.53;;;2.33;;
12962;SDS011;6546;49.882;8.666;2023-04-10T12:23:13;2.60;;;2.23;;
12962;SDS011;6546;49.882;8.666;2023-04-10T12:25:40;3.33;;;2.63;;
12962;SDS011;6546;49.882;8.666;2023-04-10T12:28:07;2.63;;;2.43;;
12962;SDS011;6546;49.882;8.666;2023-04-10T12:30:33;2.60;;;2.40;;
12962;SDS011;6546;49.882;8.666;2023-04-10T12:33:00;2.60;;;2.40;;
12962;SDS011;6546;49.882;8.666;2023-04-10T12:35:38;2.47;;;2.27;;
12962;SDS011;6546;49.882;8.666;2023-04-10T12:38:07;2.67;;;2.47;;
12962;SDS011;6546;49.882;8.666;2023-04-10T12:40:34;2.40;;;2.20;;
12962;SDS011;6546;49.882;8.666;2023-04-10T12:43:02;2.50;;;2.30;;
12962;SDS011;6546;49.882;8.666;2023-04-10T12:45:41;2.40;;;2.20;;
12962;SDS011;6546;49.882;8.666;2023-04-10T12:48:08;2.57;;;2.23;;
12962;SDS011;6546;49.882;8.666;2023-04-10T12:50:44;2.60;;;2.40;;
12962;SDS011;6546;49.882;8.666;2023-04-10T12:53:13;3.20;;;2.90;;
12962;SDS011;6546;49.882;8.666;2023-04-10T12:55:40;4.60;;;2.50;;
12962;SDS011;6546;49.882;8.666;2023-04-10T12:58:16;2.63;;;2.43;;
12962;SDS011;6546;49.882;8.666;2023-04-10T13:00:44;2.57;;;2.37;;
12962;SDS011;6546;49.882;8.666;2023-04-10T13:03:11;2.80;;;2.60;;
12962;SDS011;6546;49.882;8.666;2023-04-10T13:05:38;2.47;;;2.27;;
12962;SDS011;6546;49.882;8.666;2023-04-10T13:08:05;2.70;;;2.50;;
12962;SDS011;6546;49.882;8.666;2023-04-10T13:10:33;2.70;;;2.20;;
12962;SDS011;6546;49.882;8.666;2023-04-10T13:13:01;2.60;;;2.40;;
12962;SDS011;6546;49.882;8.666;2023-04-10T13:15:27;2.70;;;2.50;;
12962;SDS011;6546;49.882;8.666;2023-04-10T13:17:54;2.60;;;2.40;;
12962;SDS011;6546;49.882;8.666;2023-04-10T13:20:20;5.43;;;3.00;;
12962;SDS011;6546;49.882;8.666;2023-04-10T13:22:48;3.23;;;2.93;;
12962;SDS011;6546;49.882;8.666;2023-04-10T13:25:15;3.00;;;2.70;;
12962;SDS011;6546;49.882;8.666;2023-04-10T13:27:44;3.73;;;3.30;;
12962;SDS011;6546;49.882;8.666;2023-04-10T13:30:10;3.77;;;2.97;;
12962;SDS011;6546;49.882;8.666;2023-04-10T13:32:37;2.87;;;2.67;;
12962;SDS011;6546;49.882;8.666;2023-04-10T13:35:04;2.57;;;2.37;;
12962;SDS011;6546;49.882;8.666;2023-04-10T13:37:31;2.70;;;2.50;;
12962;SDS011;6546;49.882;8.666;2023-04-10T13:39:57;3.53;;;2.60;;
12962;SDS011;6546;49.882;8.666;2023-04-10T13:42:24;3.13;;;2.83;;
12962;SDS011;6546;49.882;8.666;2023-04-10T13:44:52;2.60;;;2.40;;
12962;SDS011;6546;49.882;8.666;2023-04-10T13:47:19;2.97;;;2.77;;
12962;SDS011;6546;49.882;8.666;2023-04-10T13:49:45;3.30;;;3.07;;
12962;SDS011;6546;49.882;8.666;2023-04-10T13:52:12;3.20;;;2.90;;
12962;SDS011;6546;49.882;8.666;2023-04-10T13:54:39;2.90;;;2.60;;
12962;SDS011;6546;49.882;8.666;2023-04-10T13:57:06;3.10;;;2.80;;
12962;SDS011;6546;49.882;8.666;2023-04-10T13:59:32;3.37;;;3.07;;
12962;SDS011;6546;49.882;8.666;2023-04-10T14:02:00;2.87;;;2.63;;
12962;SDS011;6546;49.882;8.666;2023-04-10T14:04:27;2.87;;;2.60;;
12962;SDS011;6546;49.882;8.666;2023-04-10T14:06:53;2.70;;;2.50;;
12962;SDS011;6546;49.882;8.666;2023-04-10T14:09:22;2.50;;;2.30;;
12962;SDS011;6546;49.882;8.666;2023-04-10T14:11:50;2.43;;;2.23;;
12962;SDS011;6546;49.882;8.666;2023-04-10T14:14:17;3.97;;;3.57;;
12962;SDS011;6546;49.882;8.666;2023-04-10T14:16:43;2.50;;;2.30;;
12962;SDS011;6546;49.882;8.666;2023-04-10T14:19:11;3.00;;;2.70;;
12962;SDS011;6546;49.882;8.666;2023-04-10T14:21:38;3.40;;;3.10;;
12962;SDS011;6546;49.882;8.666;2023-04-10T14:24:07;2.83;;;2.57;;
12962;SDS011;6546;49.882;8.666;2023-04-10T14:26:34;2.90;;;2.70;;
12962;SDS011;6546;49.882;8.666;2023-04-10T14:29:01;2.60;;;2.33;;
12962;SDS011;6546;49.882;8.666;2023-04-10T14:31:27;2.10;;;1.93;;
12962;SDS011;6546;49.882;8.666;2023-04-10T14:33:54;2.57;;;2.37;;
12962;SDS011;6546;49.882;8.666;2023-04-10T14:36:22;2.83;;;2.63;;
12962;SDS011;6546;49.882;8.666;2023-04-10T14:38:48;2.40;;;2.20;;
12962;SDS011;6546;49.882;8.666;2023-04-10T14:41:15;2.73;;;2.53;;
12962;SDS011;6546;49.882;8.666;2023-04-10T14:43:41;2.50;;;2.30;;
12962;SDS011;6546;49.882;8.666;2023-04-10T14:46:08;2.53;;;2.33;;
12962;SDS011;6546;49.882;8.666;2023-04-10T14:48:35;3.97;;;2.37;;
12962;SDS011;6546;49.882;8.666;2023-04-10T14:51:01;2.53;;;2.27;;
12962;SDS011;6546;49.882;8.666;2023-04-10T14:53:30;2.67;;;2.47;;
12962;SDS011;6546;49.882;8.666;2023-04-10T14:55:57;2.60;;;2.40;;
12962;SDS011;6546;49.882;8.666;2023-04-10T14:58:23;2.57;;;2.37;;
12962;SDS011;6546;49.882;8.666;2023-04-10T15:00:50;2.40;;;2.20;;
12962;SDS011;6546;49.882;8.666;2023-04-10T15:03:17;2.50;;;2.30;;
12962;SDS011;6546;49.882;8.666;2023-04-10T15:05:43;2.57;;;2.37;;
12962;SDS011;6546;49.882;8.666;2023-04-10T15:08:10;2.53;;;1.87;;
12962;SDS011;6546;49.882;8.666;2023-04-10T15:10:38;2.33;;;2.13;;